LYTV

Tivat Airport

Tivat, Montenegro
TAF LYTV 202300Z 2100/2124 03009KT CAVOK TX27/2112Z TN15/2103Z TEMPO 2100/2102 02019KT BECMG 2106/2108 23007KT
Issued Valid From Valid To
Apr-20 @ 23:00 UTC
(5 hours ago)
Apr-21 @ 00:00 UTC
(4 hours ago)
Apr-22 @ 00:00 UTC
(in 20 hours)
Apr-21 @ 00:00 to Apr-21 @ 06:00
TAF LYTV 202300Z 2100/2124 03009KT CAVOK TX27/2112Z TN15/2103Z
Wind Visibility Clouds
30° at 9 knots 10,000+ meters
  • No significant clouds
Expired Click to View Apr-21 @ 00:00 to Apr-21 @ 02:00
TEMPO 2100/2102 02019KT
Wind
20° at 19 knots
Becoming Apr-21 @ 06:00 to Apr-22 @ 00:00
BECMG 2106/2108 23007KT
Wind Visibility Clouds
230° at 7 knots 10,000+ meters
  • No significant clouds
TAF LYTV 202300Z 2100/2124 03009KT CAVOK TX27/2112Z TN15/2103Z TEMPO 2100/2102 02019KT BECMG 2106/2108 23007KT
Issued Apr-20 @ 23:00 UTC
(5 hours ago)
Valid From Apr-21 @ 00:00 UTC
(4 hours ago)
Valid To Apr-22 @ 00:00 UTC
(in 20 hours)
Apr-21 @ 00:00 - Apr-21 @ 06:00
Wind Visibility
30° at 9 knots 10,000+ meters
Clouds
  • No significant clouds
Apr-21 @ 00:00 - Apr-21 @ 02:00
Wind
20° at 19 knots
Becoming Apr-21 @ 06:00 - Apr-22 @ 00:00
Wind Visibility
230° at 7 knots 10,000+ meters
Clouds
  • No significant clouds